logo
Search for airport 
image banner adimage banner adimage banner ad
image banner ad

YSSP - Skysafari Base

Located in Port Douglas, Australia

ICAO - , IATA -

Data provided by Airmate  

General information

Coordinates: S16°30'57" E145°26'53"
Elevation is 23 feet MSL.
Magnetic variation is 7° East
View others Airports in Queensland

Operational data

Special qualification required
Current time UTC:
Current local time:
Weather at : YBCS - Cairns / Cairns Intl ( 53 km )
METAR: YBCS 141600Z AUTO 16001KT 9999 // NCD 17/15 Q1012 RF00.0/000.0
TAF: TAF YBCS 141403Z 1415/1512 21004KT 9999 SCT040 FM150100 05010KT 9999 FEW030 FM150900 18005KT 9999 SCT025
View NOTAMs / SUP AIP / TFR affecting this airport [VIEW]
Communications frequencies: [VIEW]

Runways:

Airport contact information

Address: Port Douglas Australia

Satellite view of YSSP